sensor_id;sensor_type;location;lat;lon;timestamp;P1;durP1;ratioP1;P2;durP2;ratioP2
15944;SDS011;30172;48.832;8.732;2023-04-06T00:00:59;9.23;;;7.27;;
15944;SDS011;30172;48.832;8.732;2023-04-06T00:03:24;7.10;;;5.83;;
15944;SDS011;30172;48.832;8.732;2023-04-06T00:05:50;7.50;;;5.87;;
15944;SDS011;30172;48.832;8.732;2023-04-06T00:08:15;8.87;;;5.90;;
15944;SDS011;30172;48.832;8.732;2023-04-06T00:10:41;7.10;;;5.97;;
15944;SDS011;30172;48.832;8.732;2023-04-06T00:13:06;6.77;;;6.07;;
15944;SDS011;30172;48.832;8.732;2023-04-06T00:15:32;8.43;;;5.87;;
15944;SDS011;30172;48.832;8.732;2023-04-06T00:17:58;6.80;;;5.87;;
15944;SDS011;30172;48.832;8.732;2023-04-06T00:20:23;8.70;;;6.00;;
15944;SDS011;30172;48.832;8.732;2023-04-06T00:22:48;7.93;;;6.80;;
15944;SDS011;30172;48.832;8.732;2023-04-06T00:25:14;8.37;;;6.70;;
15944;SDS011;30172;48.832;8.732;2023-04-06T00:27:40;7.53;;;6.27;;
15944;SDS011;30172;48.832;8.732;2023-04-06T00:30:06;7.00;;;6.17;;
15944;SDS011;30172;48.832;8.732;2023-04-06T00:32:32;6.67;;;5.80;;
15944;SDS011;30172;48.832;8.732;2023-04-06T00:34:58;8.03;;;6.40;;
15944;SDS011;30172;48.832;8.732;2023-04-06T00:37:23;12.00;;;6.80;;
15944;SDS011;30172;48.832;8.732;2023-04-06T00:39:48;10.43;;;6.30;;
15944;SDS011;30172;48.832;8.732;2023-04-06T00:42:16;8.57;;;6.17;;
15944;SDS011;30172;48.832;8.732;2023-04-06T00:44:43;7.80;;;6.53;;
15944;SDS011;30172;48.832;8.732;2023-04-06T00:47:08;8.30;;;6.47;;
15944;SDS011;30172;48.832;8.732;2023-04-06T00:49:34;7.70;;;5.70;;
15944;SDS011;30172;48.832;8.732;2023-04-06T00:52:00;8.80;;;6.37;;
15944;SDS011;30172;48.832;8.732;2023-04-06T00:54:26;8.03;;;5.70;;
15944;SDS011;30172;48.832;8.732;2023-04-06T00:56:51;8.47;;;5.93;;
15944;SDS011;30172;48.832;8.732;2023-04-06T00:59:17;10.03;;;6.27;;
15944;SDS011;30172;48.832;8.732;2023-04-06T01:01:42;8.10;;;6.33;;
15944;SDS011;30172;48.832;8.732;2023-04-06T01:04:08;7.23;;;6.53;;
15944;SDS011;30172;48.832;8.732;2023-04-06T01:06:33;8.27;;;6.13;;
15944;SDS011;30172;48.832;8.732;2023-04-06T01:08:58;9.40;;;7.03;;
15944;SDS011;30172;48.832;8.732;2023-04-06T01:11:24;8.50;;;6.17;;
15944;SDS011;30172;48.832;8.732;2023-04-06T01:13:49;11.77;;;6.13;;
15944;SDS011;30172;48.832;8.732;2023-04-06T01:16:15;8.70;;;6.03;;
15944;SDS011;30172;48.832;8.732;2023-04-06T01:18:40;9.73;;;6.40;;
15944;SDS011;30172;48.832;8.732;2023-04-06T01:21:07;10.30;;;6.40;;
15944;SDS011;30172;48.832;8.732;2023-04-06T01:23:33;7.50;;;5.93;;
15944;SDS011;30172;48.832;8.732;2023-04-06T01:25:59;6.30;;;5.70;;
15944;SDS011;30172;48.832;8.732;2023-04-06T01:28:25;7.47;;;6.37;;
15944;SDS011;30172;48.832;8.732;2023-04-06T01:30:50;8.47;;;6.43;;
15944;SDS011;30172;48.832;8.732;2023-04-06T01:33:15;9.10;;;6.00;;
15944;SDS011;30172;48.832;8.732;2023-04-06T01:35:41;6.73;;;5.63;;
15944;SDS011;30172;48.832;8.732;2023-04-06T01:38:06;7.60;;;5.97;;
15944;SDS011;30172;48.832;8.732;2023-04-06T01:40:31;8.17;;;5.70;;
15944;SDS011;30172;48.832;8.732;2023-04-06T01:42:57;7.80;;;5.57;;
15944;SDS011;30172;48.832;8.732;2023-04-06T01:45:22;10.87;;;6.13;;
15944;SDS011;30172;48.832;8.732;2023-04-06T01:47:47;12.43;;;6.70;;
15944;SDS011;30172;48.832;8.732;2023-04-06T01:50:13;9.83;;;6.67;;
15944;SDS011;30172;48.832;8.732;2023-04-06T01:52:38;8.30;;;6.53;;
15944;SDS011;30172;48.832;8.732;2023-04-06T01:55:04;10.67;;;6.57;;
15944;SDS011;30172;48.832;8.732;2023-04-06T01:57:30;8.67;;;6.67;;
15944;SDS011;30172;48.832;8.732;2023-04-06T01:59:55;9.10;;;7.07;;
15944;SDS011;30172;48.832;8.732;2023-04-06T02:02:21;9.43;;;6.13;;
15944;SDS011;30172;48.832;8.732;2023-04-06T02:04:46;9.60;;;6.33;;
15944;SDS011;30172;48.832;8.732;2023-04-06T02:07:11;8.60;;;6.40;;
15944;SDS011;30172;48.832;8.732;2023-04-06T02:09:36;8.63;;;5.97;;
15944;SDS011;30172;48.832;8.732;2023-04-06T02:12:02;9.10;;;6.63;;
15944;SDS011;30172;48.832;8.732;2023-04-06T02:14:27;7.60;;;6.13;;
15944;SDS011;30172;48.832;8.732;2023-04-06T02:16:53;9.50;;;6.00;;
15944;SDS011;30172;48.832;8.732;2023-04-06T02:19:18;11.27;;;6.40;;
15944;SDS011;30172;48.832;8.732;2023-04-06T02:21:43;7.30;;;6.07;;
15944;SDS011;30172;48.832;8.732;2023-04-06T02:24:09;7.97;;;6.30;;
15944;SDS011;30172;48.832;8.732;2023-04-06T02:26:34;8.10;;;6.13;;
15944;SDS011;30172;48.832;8.732;2023-04-06T02:28:59;9.63;;;6.90;;
15944;SDS011;30172;48.832;8.732;2023-04-06T02:31:26;7.67;;;6.20;;
15944;SDS011;30172;48.832;8.732;2023-04-06T02:33:52;9.97;;;6.30;;
15944;SDS011;30172;48.832;8.732;2023-04-06T02:36:17;9.93;;;6.23;;
15944;SDS011;30172;48.832;8.732;2023-04-06T02:38:42;7.83;;;6.03;;
15944;SDS011;30172;48.832;8.732;2023-04-06T02:41:08;8.63;;;6.53;;
15944;SDS011;30172;48.832;8.732;2023-04-06T02:43:33;8.23;;;5.70;;
15944;SDS011;30172;48.832;8.732;2023-04-06T02:45:59;9.37;;;6.60;;
15944;SDS011;30172;48.832;8.732;2023-04-06T02:48:25;6.83;;;6.13;;
15944;SDS011;30172;48.832;8.732;2023-04-06T02:50:50;11.80;;;7.20;;
15944;SDS011;30172;48.832;8.732;2023-04-06T02:53:15;8.23;;;5.57;;
15944;SDS011;30172;48.832;8.732;2023-04-06T02:55:40;7.53;;;6.20;;
15944;SDS011;30172;48.832;8.732;2023-04-06T02:58:06;7.63;;;6.13;;
15944;SDS011;30172;48.832;8.732;2023-04-06T03:00:31;8.30;;;6.30;;
15944;SDS011;30172;48.832;8.732;2023-04-06T03:02:57;10.03;;;6.63;;
15944;SDS011;30172;48.832;8.732;2023-04-06T03:05:22;9.37;;;6.67;;
15944;SDS011;30172;48.832;8.732;2023-04-06T03:07:47;6.80;;;6.07;;
15944;SDS011;30172;48.832;8.732;2023-04-06T03:10:12;7.50;;;6.17;;
15944;SDS011;30172;48.832;8.732;2023-04-06T03:12:38;8.03;;;6.40;;
15944;SDS011;30172;48.832;8.732;2023-04-06T03:15:03;7.47;;;6.13;;
15944;SDS011;30172;48.832;8.732;2023-04-06T03:17:29;10.33;;;6.87;;
15944;SDS011;30172;48.832;8.732;2023-04-06T03:19:55;9.47;;;6.63;;
15944;SDS011;30172;48.832;8.732;2023-04-06T03:22:20;12.63;;;6.80;;
15944;SDS011;30172;48.832;8.732;2023-04-06T03:24:45;9.47;;;6.13;;
15944;SDS011;30172;48.832;8.732;2023-04-06T03:27:11;10.17;;;6.47;;
15944;SDS011;30172;48.832;8.732;2023-04-06T03:29:36;12.27;;;6.50;;
15944;SDS011;30172;48.832;8.732;2023-04-06T03:32:02;10.13;;;6.83;;
15944;SDS011;30172;48.832;8.732;2023-04-06T03:34:27;9.00;;;6.63;;
15944;SDS011;30172;48.832;8.732;2023-04-06T03:36:52;9.83;;;7.00;;
15944;SDS011;30172;48.832;8.732;2023-04-06T03:39:18;8.77;;;6.87;;
15944;SDS011;30172;48.832;8.732;2023-04-06T03:41:43;8.57;;;6.43;;
15944;SDS011;30172;48.832;8.732;2023-04-06T03:44:09;9.57;;;6.53;;
15944;SDS011;30172;48.832;8.732;2023-04-06T03:46:35;11.80;;;6.90;;
15944;SDS011;30172;48.832;8.732;2023-04-06T03:49:00;9.10;;;6.33;;
15944;SDS011;30172;48.832;8.732;2023-04-06T03:51:26;7.60;;;5.37;;
15944;SDS011;30172;48.832;8.732;2023-04-06T03:53:52;9.07;;;5.77;;
15944;SDS011;30172;48.832;8.732;2023-04-06T03:56:17;9.97;;;6.30;;
15944;SDS011;30172;48.832;8.732;2023-04-06T03:58:42;9.40;;;6.10;;
15944;SDS011;30172;48.832;8.732;2023-04-06T04:01:10;9.30;;;6.13;;
15944;SDS011;30172;48.832;8.732;2023-04-06T04:03:35;13.00;;;8.10;;
15944;SDS011;30172;48.832;8.732;2023-04-06T04:06:00;16.17;;;9.67;;
15944;SDS011;30172;48.832;8.732;2023-04-06T04:08:26;22.67;;;10.27;;
15944;SDS011;30172;48.832;8.732;2023-04-06T04:10:51;17.27;;;9.90;;
15944;SDS011;30172;48.832;8.732;2023-04-06T04:13:16;13.97;;;9.13;;
15944;SDS011;30172;48.832;8.732;2023-04-06T04:15:42;8.80;;;7.27;;
15944;SDS011;30172;48.832;8.732;2023-04-06T04:18:07;12.20;;;7.57;;
15944;SDS011;30172;48.832;8.732;2023-04-06T04:20:32;12.13;;;6.10;;
15944;SDS011;30172;48.832;8.732;2023-04-06T04:22:59;8.53;;;6.17;;
15944;SDS011;30172;48.832;8.732;2023-04-06T04:25:24;8.83;;;6.93;;
15944;SDS011;30172;48.832;8.732;2023-04-06T04:27:49;8.37;;;5.87;;
15944;SDS011;30172;48.832;8.732;2023-04-06T04:30:15;8.20;;;6.10;;
15944;SDS011;30172;48.832;8.732;2023-04-06T04:32:41;9.37;;;7.20;;
15944;SDS011;30172;48.832;8.732;2023-04-06T04:35:06;8.17;;;6.50;;
15944;SDS011;30172;48.832;8.732;2023-04-06T04:37:32;8.57;;;6.83;;
15944;SDS011;30172;48.832;8.732;2023-04-06T04:39:59;8.20;;;6.50;;
15944;SDS011;30172;48.832;8.732;2023-04-06T04:42:25;7.27;;;6.00;;
15944;SDS011;30172;48.832;8.732;2023-04-06T04:44:50;12.60;;;7.03;;
15944;SDS011;30172;48.832;8.732;2023-04-06T04:47:15;8.27;;;6.50;;
15944;SDS011;30172;48.832;8.732;2023-04-06T04:49:41;10.60;;;5.97;;
15944;SDS011;30172;48.832;8.732;2023-04-06T04:52:06;16.03;;;9.80;;
15944;SDS011;30172;48.832;8.732;2023-04-06T04:54:31;10.93;;;8.20;;
15944;SDS011;30172;48.832;8.732;2023-04-06T04:56:56;10.23;;;7.43;;
15944;SDS011;30172;48.832;8.732;2023-04-06T04:59:22;9.43;;;7.33;;
15944;SDS011;30172;48.832;8.732;2023-04-06T05:01:47;9.13;;;7.13;;
15944;SDS011;30172;48.832;8.732;2023-04-06T05:04:12;8.03;;;6.57;;
15944;SDS011;30172;48.832;8.732;2023-04-06T05:06:38;9.23;;;7.00;;
15944;SDS011;30172;48.832;8.732;2023-04-06T05:09:03;10.40;;;7.43;;
15944;SDS011;30172;48.832;8.732;2023-04-06T05:11:28;9.07;;;7.67;;
15944;SDS011;30172;48.832;8.732;2023-04-06T05:13:54;9.77;;;7.83;;
15944;SDS011;30172;48.832;8.732;2023-04-06T05:16:19;9.43;;;7.17;;
15944;SDS011;30172;48.832;8.732;2023-04-06T05:18:44;7.13;;;6.43;;
15944;SDS011;30172;48.832;8.732;2023-04-06T05:21:10;9.57;;;6.60;;
15944;SDS011;30172;48.832;8.732;2023-04-06T05:23:36;9.07;;;6.40;;
15944;SDS011;30172;48.832;8.732;2023-04-06T05:26:01;8.40;;;6.70;;
15944;SDS011;30172;48.832;8.732;2023-04-06T05:28:26;7.37;;;5.83;;
15944;SDS011;30172;48.832;8.732;2023-04-06T05:30:52;9.07;;;6.37;;
15944;SDS011;30172;48.832;8.732;2023-04-06T05:33:17;6.90;;;5.80;;
15944;SDS011;30172;48.832;8.732;2023-04-06T05:35:43;7.00;;;5.77;;
15944;SDS011;30172;48.832;8.732;2023-04-06T05:38:08;7.30;;;5.30;;
15944;SDS011;30172;48.832;8.732;2023-04-06T05:40:35;8.13;;;5.70;;
15944;SDS011;30172;48.832;8.732;2023-04-06T05:43:02;6.03;;;5.10;;
15944;SDS011;30172;48.832;8.732;2023-04-06T05:45:27;7.80;;;5.77;;
15944;SDS011;30172;48.832;8.732;2023-04-06T05:47:52;7.10;;;5.50;;
15944;SDS011;30172;48.832;8.732;2023-04-06T05:50:18;6.50;;;5.40;;
15944;SDS011;30172;48.832;8.732;2023-04-06T05:52:43;7.10;;;5.23;;
15944;SDS011;30172;48.832;8.732;2023-04-06T05:55:11;8.37;;;6.27;;
15944;SDS011;30172;48.832;8.732;2023-04-06T05:57:36;11.80;;;7.23;;
15944;SDS011;30172;48.832;8.732;2023-04-06T06:00:02;10.47;;;6.60;;
15944;SDS011;30172;48.832;8.732;2023-04-06T06:02:30;6.90;;;5.80;;
15944;SDS011;30172;48.832;8.732;2023-04-06T06:04:55;6.63;;;5.13;;
15944;SDS011;30172;48.832;8.732;2023-04-06T06:07:21;7.90;;;5.73;;
15944;SDS011;30172;48.832;8.732;2023-04-06T06:09:46;7.90;;;5.77;;
15944;SDS011;30172;48.832;8.732;2023-04-06T06:12:11;6.70;;;5.00;;
15944;SDS011;30172;48.832;8.732;2023-04-06T06:14:37;10.30;;;5.50;;
15944;SDS011;30172;48.832;8.732;2023-04-06T06:17:02;6.57;;;5.87;;
15944;SDS011;30172;48.832;8.732;2023-04-06T06:19:27;8.03;;;5.23;;
15944;SDS011;30172;48.832;8.732;2023-04-06T06:21:53;5.57;;;4.47;;
15944;SDS011;30172;48.832;8.732;2023-04-06T06:24:18;5.97;;;4.57;;
15944;SDS011;30172;48.832;8.732;2023-04-06T06:26:43;6.73;;;5.40;;
15944;SDS011;30172;48.832;8.732;2023-04-06T06:29:09;5.30;;;4.80;;
15944;SDS011;30172;48.832;8.732;2023-04-06T06:31:34;7.50;;;5.33;;
15944;SDS011;30172;48.832;8.732;2023-04-06T06:34:00;6.53;;;4.90;;
15944;SDS011;30172;48.832;8.732;2023-04-06T06:36:26;6.50;;;5.37;;
15944;SDS011;30172;48.832;8.732;2023-04-06T06:38:52;7.90;;;5.00;;
15944;SDS011;30172;48.832;8.732;2023-04-06T06:41:17;6.03;;;4.70;;
15944;SDS011;30172;48.832;8.732;2023-04-06T06:43:42;6.70;;;5.37;;
15944;SDS011;30172;48.832;8.732;2023-04-06T06:46:08;7.07;;;5.23;;
15944;SDS011;30172;48.832;8.732;2023-04-06T06:48:33;5.90;;;4.90;;
15944;SDS011;30172;48.832;8.732;2023-04-06T06:50:58;8.27;;;5.33;;
15944;SDS011;30172;48.832;8.732;2023-04-06T06:53:24;6.47;;;5.77;;
15944;SDS011;30172;48.832;8.732;2023-04-06T06:55:49;9.17;;;5.87;;
15944;SDS011;30172;48.832;8.732;2023-04-06T06:58:18;8.27;;;6.70;;
15944;SDS011;30172;48.832;8.732;2023-04-06T07:00:44;8.70;;;6.13;;
15944;SDS011;30172;48.832;8.732;2023-04-06T07:03:10;6.93;;;6.17;;
15944;SDS011;30172;48.832;8.732;2023-04-06T07:05:35;7.13;;;6.13;;
15944;SDS011;30172;48.832;8.732;2023-04-06T07:08:00;6.77;;;6.00;;
15944;SDS011;30172;48.832;8.732;2023-04-06T07:10:26;6.27;;;5.63;;
15944;SDS011;30172;48.832;8.732;2023-04-06T07:12:51;12.03;;;7.40;;
15944;SDS011;30172;48.832;8.732;2023-04-06T07:15:16;8.40;;;6.30;;
15944;SDS011;30172;48.832;8.732;2023-04-06T07:17:42;9.80;;;6.30;;
15944;SDS011;30172;48.832;8.732;2023-04-06T07:20:10;9.13;;;6.30;;
15944;SDS011;30172;48.832;8.732;2023-04-06T07:22:35;8.17;;;6.37;;
15944;SDS011;30172;48.832;8.732;2023-04-06T07:25:01;7.13;;;6.40;;
15944;SDS011;30172;48.832;8.732;2023-04-06T07:27:26;10.03;;;6.33;;
15944;SDS011;30172;48.832;8.732;2023-04-06T07:29:51;9.47;;;5.90;;
15944;SDS011;30172;48.832;8.732;2023-04-06T07:32:17;9.63;;;6.30;;
15944;SDS011;30172;48.832;8.732;2023-04-06T07:34:42;8.97;;;6.50;;
15944;SDS011;30172;48.832;8.732;2023-04-06T07:37:07;6.90;;;6.17;;
15944;SDS011;30172;48.832;8.732;2023-04-06T07:39:33;7.20;;;6.50;;
15944;SDS011;30172;48.832;8.732;2023-04-06T07:41:58;6.87;;;6.17;;
15944;SDS011;30172;48.832;8.732;2023-04-06T07:44:24;8.63;;;6.37;;
15944;SDS011;30172;48.832;8.732;2023-04-06T07:46:49;7.90;;;6.63;;
15944;SDS011;30172;48.832;8.732;2023-04-06T07:49:15;9.10;;;6.70;;
15944;SDS011;30172;48.832;8.732;2023-04-06T07:51:40;11.67;;;6.80;;
15944;SDS011;30172;48.832;8.732;2023-04-06T07:54:06;9.67;;;6.37;;
15944;SDS011;30172;48.832;8.732;2023-04-06T07:56:31;8.00;;;6.37;;
15944;SDS011;30172;48.832;8.732;2023-04-06T07:58:57;8.97;;;5.70;;
15944;SDS011;30172;48.832;8.732;2023-04-06T08:01:23;9.63;;;6.50;;
15944;SDS011;30172;48.832;8.732;2023-04-06T08:03:48;7.37;;;6.50;;
15944;SDS011;30172;48.832;8.732;2023-04-06T08:06:15;7.73;;;6.03;;
15944;SDS011;30172;48.832;8.732;2023-04-06T08:08:41;6.93;;;6.20;;
15944;SDS011;30172;48.832;8.732;2023-04-06T08:11:07;6.70;;;5.83;;
15944;SDS011;30172;48.832;8.732;2023-04-06T08:13:32;9.17;;;6.43;;
15944;SDS011;30172;48.832;8.732;2023-04-06T08:15:58;8.07;;;6.63;;
15944;SDS011;30172;48.832;8.732;2023-04-06T08:18:24;7.50;;;6.10;;
15944;SDS011;30172;48.832;8.732;2023-04-06T08:20:52;7.70;;;6.00;;
15944;SDS011;30172;48.832;8.732;2023-04-06T08:23:17;6.97;;;5.90;;
15944;SDS011;30172;48.832;8.732;2023-04-06T08:25:43;8.87;;;6.20;;
15944;SDS011;30172;48.832;8.732;2023-04-06T08:28:08;7.03;;;5.80;;
15944;SDS011;30172;48.832;8.732;2023-04-06T08:30:34;6.60;;;5.87;;
15944;SDS011;30172;48.832;8.732;2023-04-06T08:33:00;9.60;;;5.90;;
15944;SDS011;30172;48.832;8.732;2023-04-06T08:35:25;9.33;;;6.03;;
15944;SDS011;30172;48.832;8.732;2023-04-06T08:37:51;9.90;;;6.83;;
15944;SDS011;30172;48.832;8.732;2023-04-06T08:40:17;6.80;;;6.07;;
15944;SDS011;30172;48.832;8.732;2023-04-06T08:42:44;6.13;;;5.53;;
15944;SDS011;30172;48.832;8.732;2023-04-06T08:45:11;7.20;;;5.80;;
15944;SDS011;30172;48.832;8.732;2023-04-06T08:47:38;7.60;;;6.03;;
15944;SDS011;30172;48.832;8.732;2023-04-06T08:50:03;9.00;;;7.00;;
15944;SDS011;30172;48.832;8.732;2023-04-06T08:52:29;9.97;;;6.67;;
15944;SDS011;30172;48.832;8.732;2023-04-06T08:54:57;7.63;;;6.00;;
15944;SDS011;30172;48.832;8.732;2023-04-06T08:57:22;8.70;;;7.03;;
15944;SDS011;30172;48.832;8.732;2023-04-06T08:59:48;7.67;;;6.47;;
15944;SDS011;30172;48.832;8.732;2023-04-06T09:02:15;10.97;;;7.30;;
15944;SDS011;30172;48.832;8.732;2023-04-06T09:04:42;9.77;;;7.73;;
15944;SDS011;30172;48.832;8.732;2023-04-06T09:07:08;10.10;;;8.10;;
15944;SDS011;30172;48.832;8.732;2023-04-06T09:09:33;9.73;;;7.80;;
15944;SDS011;30172;48.832;8.732;2023-04-06T09:11:59;8.33;;;7.43;;
15944;SDS011;30172;48.832;8.732;2023-04-06T09:14:34;8.77;;;7.27;;
15944;SDS011;30172;48.832;8.732;2023-04-06T09:17:02;9.63;;;8.03;;
15944;SDS011;30172;48.832;8.732;2023-04-06T09:19:28;7.87;;;7.07;;
15944;SDS011;30172;48.832;8.732;2023-04-06T09:22:06;9.20;;;7.10;;
15944;SDS011;30172;48.832;8.732;2023-04-06T09:24:45;8.90;;;6.93;;
15944;SDS011;30172;48.832;8.732;2023-04-06T09:27:14;8.07;;;6.70;;
15944;SDS011;30172;48.832;8.732;2023-04-06T09:29:40;9.67;;;6.43;;
15944;SDS011;30172;48.832;8.732;2023-04-06T09:32:07;9.70;;;7.20;;
15944;SDS011;30172;48.832;8.732;2023-04-06T09:34:36;9.60;;;7.37;;
15944;SDS011;30172;48.832;8.732;2023-04-06T09:39:39;8.73;;;7.40;;
15944;SDS011;30172;48.832;8.732;2023-04-06T09:42:05;9.37;;;7.63;;
15944;SDS011;30172;48.832;8.732;2023-04-06T09:44:30;9.27;;;7.07;;
15944;SDS011;30172;48.832;8.732;2023-04-06T09:46:56;9.77;;;7.23;;
15944;SDS011;30172;48.832;8.732;2023-04-06T09:49:21;11.00;;;6.83;;
15944;SDS011;30172;48.832;8.732;2023-04-06T09:51:55;8.30;;;7.20;;
15944;SDS011;30172;48.832;8.732;2023-04-06T09:54:23;10.90;;;8.73;;
15944;SDS011;30172;48.832;8.732;2023-04-06T09:57:18;10.23;;;8.43;;
15944;SDS011;30172;48.832;8.732;2023-04-06T10:05:27;9.23;;;7.57;;
15944;SDS011;30172;48.832;8.732;2023-04-06T10:07:56;9.10;;;7.60;;
15944;SDS011;30172;48.832;8.732;2023-04-06T10:10:22;9.97;;;7.53;;
15944;SDS011;30172;48.832;8.732;2023-04-06T10:12:48;12.93;;;8.37;;
15944;SDS011;30172;48.832;8.732;2023-04-06T10:15:14;13.17;;;8.77;;
15944;SDS011;30172;48.832;8.732;2023-04-06T10:17:39;10.83;;;8.40;;
15944;SDS011;30172;48.832;8.732;2023-04-06T10:22:53;11.77;;;8.33;;
15944;SDS011;30172;48.832;8.732;2023-04-06T10:25:31;10.73;;;8.13;;
15944;SDS011;30172;48.832;8.732;2023-04-06T10:28:06;10.53;;;8.37;;
15944;SDS011;30172;48.832;8.732;2023-04-06T10:30:33;8.37;;;7.17;;
15944;SDS011;30172;48.832;8.732;2023-04-06T10:32:58;9.30;;;7.27;;
15944;SDS011;30172;48.832;8.732;2023-04-06T10:35:24;7.87;;;7.07;;
15944;SDS011;30172;48.832;8.732;2023-04-06T10:37:51;8.07;;;7.27;;
15944;SDS011;30172;48.832;8.732;2023-04-06T10:40:27;10.60;;;7.80;;
15944;SDS011;30172;48.832;8.732;2023-04-06T10:42:53;9.93;;;8.00;;
15944;SDS011;30172;48.832;8.732;2023-04-06T10:45:23;9.67;;;7.20;;
15944;SDS011;30172;48.832;8.732;2023-04-06T10:47:54;9.70;;;6.80;;
15944;SDS011;30172;48.832;8.732;2023-04-06T10:50:19;9.93;;;6.63;;
15944;SDS011;30172;48.832;8.732;2023-04-06T10:52:45;12.10;;;7.20;;
15944;SDS011;30172;48.832;8.732;2023-04-06T10:55:14;9.10;;;6.80;;
15944;SDS011;30172;48.832;8.732;2023-04-06T10:57:40;7.70;;;6.30;;
15944;SDS011;30172;48.832;8.732;2023-04-06T11:00:05;7.93;;;7.00;;
15944;SDS011;30172;48.832;8.732;2023-04-06T11:02:32;7.43;;;6.17;;
15944;SDS011;30172;48.832;8.732;2023-04-06T11:04:57;8.10;;;6.73;;
15944;SDS011;30172;48.832;8.732;2023-04-06T11:07:26;8.50;;;7.17;;
15944;SDS011;30172;48.832;8.732;2023-04-06T11:09:54;9.30;;;6.67;;
15944;SDS011;30172;48.832;8.732;2023-04-06T11:12:23;7.30;;;6.50;;
15944;SDS011;30172;48.832;8.732;2023-04-06T11:14:53;10.00;;;7.27;;
15944;SDS011;30172;48.832;8.732;2023-04-06T11:17:25;10.33;;;6.67;;
15944;SDS011;30172;48.832;8.732;2023-04-06T11:19:51;8.43;;;6.27;;
15944;SDS011;30172;48.832;8.732;2023-04-06T11:22:16;7.03;;;6.10;;
15944;SDS011;30172;48.832;8.732;2023-04-06T11:24:41;7.87;;;6.50;;
15944;SDS011;30172;48.832;8.732;2023-04-06T11:27:07;9.13;;;6.33;;
15944;SDS011;30172;48.832;8.732;2023-04-06T11:29:32;6.93;;;6.00;;
15944;SDS011;30172;48.832;8.732;2023-04-06T11:32:01;6.90;;;6.20;;
15944;SDS011;30172;48.832;8.732;2023-04-06T11:34:30;6.27;;;5.67;;
15944;SDS011;30172;48.832;8.732;2023-04-06T11:36:59;6.10;;;5.50;;
15944;SDS011;30172;48.832;8.732;2023-04-06T11:39:27;6.50;;;5.67;;
15944;SDS011;30172;48.832;8.732;2023-04-06T11:41:54;7.37;;;6.20;;
15944;SDS011;30172;48.832;8.732;2023-04-06T11:44:28;7.00;;;5.53;;
15944;SDS011;30172;48.832;8.732;2023-04-06T11:46:56;8.67;;;5.70;;
15944;SDS011;30172;48.832;8.732;2023-04-06T11:49:26;7.10;;;6.13;;
15944;SDS011;30172;48.832;8.732;2023-04-06T11:51:52;7.40;;;5.60;;
15944;SDS011;30172;48.832;8.732;2023-04-06T11:54:17;8.17;;;5.83;;
15944;SDS011;30172;48.832;8.732;2023-04-06T11:56:45;10.00;;;6.93;;
15944;SDS011;30172;48.832;8.732;2023-04-06T11:59:11;10.20;;;7.40;;
15944;SDS011;30172;48.832;8.732;2023-04-06T12:01:44;9.40;;;8.17;;
15944;SDS011;30172;48.832;8.732;2023-04-06T12:04:10;8.93;;;7.80;;
15944;SDS011;30172;48.832;8.732;2023-04-06T12:06:35;10.53;;;7.57;;
15944;SDS011;30172;48.832;8.732;2023-04-06T12:09:01;9.40;;;7.47;;
15944;SDS011;30172;48.832;8.732;2023-04-06T12:11:26;11.03;;;7.47;;
15944;SDS011;30172;48.832;8.732;2023-04-06T12:13:51;11.10;;;8.50;;
15944;SDS011;30172;48.832;8.732;2023-04-06T12:16:16;9.47;;;8.07;;
15944;SDS011;30172;48.832;8.732;2023-04-06T12:18:44;9.70;;;7.57;;
15944;SDS011;30172;48.832;8.732;2023-04-06T12:21:09;8.97;;;7.73;;
15944;SDS011;30172;48.832;8.732;2023-04-06T12:23:35;8.70;;;7.77;;
15944;SDS011;30172;48.832;8.732;2023-04-06T12:26:00;9.03;;;7.50;;
15944;SDS011;30172;48.832;8.732;2023-04-06T12:28:26;9.00;;;7.53;;
15944;SDS011;30172;48.832;8.732;2023-04-06T12:30:52;8.10;;;7.30;;
15944;SDS011;30172;48.832;8.732;2023-04-06T12:33:18;8.23;;;6.87;;
15944;SDS011;30172;48.832;8.732;2023-04-06T12:35:43;10.57;;;7.47;;
15944;SDS011;30172;48.832;8.732;2023-04-06T12:38:08;10.33;;;7.70;;
15944;SDS011;30172;48.832;8.732;2023-04-06T12:40:37;8.37;;;7.43;;
15944;SDS011;30172;48.832;8.732;2023-04-06T12:43:03;8.93;;;7.57;;
15944;SDS011;30172;48.832;8.732;2023-04-06T12:45:30;8.80;;;7.77;;
15944;SDS011;30172;48.832;8.732;2023-04-06T12:47:55;10.20;;;8.10;;
15944;SDS011;30172;48.832;8.732;2023-04-06T12:50:21;11.57;;;8.70;;
15944;SDS011;30172;48.832;8.732;2023-04-06T12:52:46;12.70;;;7.83;;
15944;SDS011;30172;48.832;8.732;2023-04-06T12:55:12;10.07;;;8.27;;
15944;SDS011;30172;48.832;8.732;2023-04-06T12:57:37;9.30;;;8.10;;
15944;SDS011;30172;48.832;8.732;2023-04-06T13:00:03;10.13;;;7.70;;
15944;SDS011;30172;48.832;8.732;2023-04-06T13:02:29;9.53;;;7.40;;
15944;SDS011;30172;48.832;8.732;2023-04-06T13:04:55;8.87;;;7.97;;
15944;SDS011;30172;48.832;8.732;2023-04-06T13:07:21;9.30;;;8.00;;
15944;SDS011;30172;48.832;8.732;2023-04-06T13:09:46;10.20;;;7.77;;
15944;SDS011;30172;48.832;8.732;2023-04-06T13:12:14;8.33;;;7.33;;
15944;SDS011;30172;48.832;8.732;2023-04-06T13:14:39;8.70;;;7.70;;
15944;SDS011;30172;48.832;8.732;2023-04-06T13:17:05;9.50;;;7.83;;
15944;SDS011;30172;48.832;8.732;2023-04-06T13:19:31;9.67;;;7.17;;
15944;SDS011;30172;48.832;8.732;2023-04-06T13:21:56;8.33;;;6.90;;
15944;SDS011;30172;48.832;8.732;2023-04-06T13:24:22;8.70;;;7.23;;
15944;SDS011;30172;48.832;8.732;2023-04-06T13:26:48;8.73;;;7.87;;
15944;SDS011;30172;48.832;8.732;2023-04-06T13:29:13;12.70;;;8.23;;
15944;SDS011;30172;48.832;8.732;2023-04-06T13:31:39;8.73;;;7.73;;
15944;SDS011;30172;48.832;8.732;2023-04-06T13:34:04;9.50;;;7.80;;
15944;SDS011;30172;48.832;8.732;2023-04-06T13:36:30;7.37;;;6.63;;
15944;SDS011;30172;48.832;8.732;2023-04-06T13:38:56;8.87;;;6.40;;
15944;SDS011;30172;48.832;8.732;2023-04-06T13:41:22;7.13;;;6.47;;
15944;SDS011;30172;48.832;8.732;2023-04-06T13:43:49;8.33;;;7.37;;
15944;SDS011;30172;48.832;8.732;2023-04-06T13:46:14;8.33;;;6.83;;
15944;SDS011;30172;48.832;8.732;2023-04-06T13:48:40;8.33;;;6.60;;
15944;SDS011;30172;48.832;8.732;2023-04-06T13:51:09;9.87;;;6.27;;
15944;SDS011;30172;48.832;8.732;2023-04-06T13:53:35;6.47;;;5.80;;
15944;SDS011;30172;48.832;8.732;2023-04-06T13:56:00;6.83;;;6.23;;
15944;SDS011;30172;48.832;8.732;2023-04-06T13:58:26;7.07;;;5.90;;
15944;SDS011;30172;48.832;8.732;2023-04-06T14:00:51;8.40;;;7.50;;
15944;SDS011;30172;48.832;8.732;2023-04-06T14:03:17;8.10;;;7.20;;
15944;SDS011;30172;48.832;8.732;2023-04-06T14:05:42;8.40;;;6.30;;
15944;SDS011;30172;48.832;8.732;2023-04-06T14:08:08;6.37;;;5.73;;
15944;SDS011;30172;48.832;8.732;2023-04-06T14:10:39;7.07;;;6.17;;
15944;SDS011;30172;48.832;8.732;2023-04-06T14:13:06;6.93;;;6.23;;
15944;SDS011;30172;48.832;8.732;2023-04-06T14:15:37;7.80;;;6.30;;
15944;SDS011;30172;48.832;8.732;2023-04-06T14:18:03;8.50;;;6.53;;
15944;SDS011;30172;48.832;8.732;2023-04-06T14:20:28;9.67;;;6.10;;
15944;SDS011;30172;48.832;8.732;2023-04-06T14:22:56;8.40;;;6.67;;
15944;SDS011;30172;48.832;8.732;2023-04-06T14:25:21;8.80;;;6.77;;
15944;SDS011;30172;48.832;8.732;2023-04-06T14:27:46;8.23;;;7.43;;
15944;SDS011;30172;48.832;8.732;2023-04-06T14:30:12;7.07;;;6.30;;
15944;SDS011;30172;48.832;8.732;2023-04-06T14:32:38;8.87;;;6.93;;
15944;SDS011;30172;48.832;8.732;2023-04-06T14:35:04;13.00;;;7.67;;
15944;SDS011;30172;48.832;8.732;2023-04-06T14:37:30;9.97;;;6.93;;
15944;SDS011;30172;48.832;8.732;2023-04-06T14:39:55;9.40;;;6.63;;
15944;SDS011;30172;48.832;8.732;2023-04-06T14:42:20;8.67;;;6.93;;
15944;SDS011;30172;48.832;8.732;2023-04-06T14:44:46;8.40;;;6.10;;
15944;SDS011;30172;48.832;8.732;2023-04-06T14:47:11;16.57;;;10.67;;
15944;SDS011;30172;48.832;8.732;2023-04-06T14:49:36;8.03;;;6.57;;